Time;durP1;ratioP1;P1;durP2;ratioP2;P2;SDS_P1;SDS_P2;PMS_P1;PMS_P2;Temp;Humidity;BMP_temperature;BMP_pressure;BME280_temperature;BME280_humidity;BME280_pressure;Samples;Min_cycle;Max_cycle;Signal;HPM_P1;HPM_P2
2023/03/12 00:02:01;;;;;;;15.27;7.72;;;;;;;-0.51;100.00;93424.59;5011975;28;20543;-62
2023/03/12 00:04:27;;;;;;;16.17;7.88;;;;;;;-0.38;100.00;93427.13;5031272;28;20044;-62
2023/03/12 00:06:54;;;;;;;16.40;7.97;;;;;;;-0.35;100.00;93431.81;5029335;28;20045;-63
2023/03/12 00:09:22;;;;;;;13.82;7.38;;;;;;;-0.36;99.54;93431.03;5031050;28;20053;-64
2023/03/12 00:11:49;;;;;;;13.73;7.32;;;;;;;-0.39;99.23;93433.66;5030722;28;20046;-64
2023/03/12 00:14:16;;;;;;;13.50;7.43;;;;;;;-0.35;99.10;93429.13;5044231;28;20049;-63
2023/03/12 00:16:42;;;;;;;17.15;8.55;;;;;;;-0.29;98.76;93427.69;5030550;28;20678;-64
2023/03/12 00:19:12;;;;;;;15.87;8.60;;;;;;;-0.30;98.49;93442.28;5030912;28;20075;-64
2023/03/12 00:21:39;;;;;;;13.82;7.50;;;;;;;-0.26;98.42;93441.22;5030603;28;20045;-64
2023/03/12 00:24:06;;;;;;;15.38;7.50;;;;;;;-0.24;97.64;93436.25;5030188;28;20053;-64
2023/03/12 00:26:33;;;;;;;14.65;7.18;;;;;;;-0.20;97.20;93433.63;5030900;28;20272;-64
2023/03/12 00:29:00;;;;;;;15.20;7.18;;;;;;;-0.22;97.58;93430.53;5029997;28;20049;-63
2023/03/12 00:31:31;;;;;;;13.33;7.33;;;;;;;-0.22;98.24;93433.97;5029089;28;20053;-63
2023/03/12 00:34:00;;;;;;;14.55;7.63;;;;;;;-0.16;97.47;93437.16;5030079;28;20034;-64
2023/03/12 00:36:29;;;;;;;13.93;7.60;;;;;;;-0.24;98.45;93436.25;5030610;28;20510;-64
2023/03/12 00:38:57;;;;;;;14.52;7.20;;;;;;;-0.31;98.77;93433.44;5029828;28;20045;-63
2023/03/12 00:41:25;;;;;;;14.48;6.90;;;;;;;-0.37;100.00;93445.66;5030468;28;20041;-63
2023/03/12 00:43:52;;;;;;;13.10;7.07;;;;;;;-0.82;100.00;93437.13;5029835;28;20052;-64
2023/03/12 00:46:19;;;;;;;12.10;7.07;;;;;;;-0.76;100.00;93432.22;5030145;28;20041;-63
2023/03/12 00:48:46;;;;;;;14.10;7.68;;;;;;;-0.59;100.00;93427.53;5022229;28;20045;-64
2023/03/12 00:51:13;;;;;;;14.25;7.63;;;;;;;-0.48;100.00;93421.19;5012587;28;20505;-63
2023/03/12 00:53:40;;;;;;;14.57;7.30;;;;;;;-0.35;100.00;93424.50;5027752;28;20406;-64
2023/03/12 00:56:07;;;;;;;13.67;7.77;;;;;;;-0.34;100.00;93422.56;5029296;28;21390;-64
2023/03/12 00:58:34;;;;;;;15.63;8.50;;;;;;;-0.34;100.00;93422.56;5029965;28;20390;-64
2023/03/12 01:01:00;;;;;;;14.57;7.78;;;;;;;-0.38;100.00;93417.13;5027969;28;20045;-64
2023/03/12 01:03:27;;;;;;;16.90;8.30;;;;;;;-0.29;100.00;93419.59;5029969;28;20033;-64
2023/03/12 01:05:54;;;;;;;16.95;7.95;;;;;;;-0.51;100.00;93419.19;5027904;28;20391;-63
2023/03/12 01:08:21;;;;;;;45.67;22.17;;;;;;;-0.50;100.00;93420.78;5029880;28;20037;-64
2023/03/12 01:10:48;;;;;;;21.42;10.00;;;;;;;-0.61;100.00;93417.88;5029331;28;20048;-64
2023/03/12 01:13:15;;;;;;;17.08;8.43;;;;;;;-0.74;100.00;93418.41;5029737;28;20050;-63
2023/03/12 01:15:42;;;;;;;17.05;8.27;;;;;;;-0.69;100.00;93415.41;5028967;28;20041;-62
2023/03/12 01:18:09;;;;;;;17.08;7.90;;;;;;;-0.56;100.00;93419.50;5029845;28;20410;-64
2023/03/12 01:20:35;;;;;;;20.13;8.37;;;;;;;-0.52;100.00;93417.66;5029363;28;20049;-64
2023/03/12 01:23:02;;;;;;;13.45;7.22;;;;;;;-0.46;100.00;93418.16;5029064;28;20126;-64
2023/03/12 01:25:29;;;;;;;13.50;7.05;;;;;;;-0.57;100.00;93420.63;5029692;28;20055;-63
2023/03/12 01:27:56;;;;;;;11.68;5.97;;;;;;;-0.57;100.00;93419.88;5028980;28;20050;-63
2023/03/12 01:30:22;;;;;;;14.68;7.25;;;;;;;-0.50;100.00;93414.63;5028970;28;20049;-62
2023/03/12 01:32:50;;;;;;;15.30;6.67;;;;;;;-0.42;100.00;93427.09;5028231;28;20225;-61
2023/03/12 01:35:18;;;;;;;13.98;6.82;;;;;;;-0.38;100.00;93436.00;5029382;28;20102;-61
2023/03/12 01:37:44;;;;;;;12.45;6.53;;;;;;;-0.47;100.00;93438.16;5041988;28;20045;-62
2023/03/12 01:40:17;;;;;;;11.57;5.15;;;;;;;-0.71;100.00;93431.91;5029067;28;20071;-62
2023/03/12 01:43:11;;;;;;;9.57;4.90;;;;;;;-0.85;100.00;93437.03;5028840;28;20252;-62
2023/03/12 01:46:15;;;;;;;10.60;5.00;;;;;;;-0.96;100.00;93431.44;5028922;28;20041;-62
2023/03/12 01:48:47;;;;;;;9.95;4.63;;;;;;;-0.91;100.00;93433.84;5020783;28;20457;-59
2023/03/12 01:51:16;;;;;;;10.48;4.93;;;;;;;-0.77;100.00;93422.56;5009805;28;20052;-63
2023/03/12 01:53:47;;;;;;;8.90;4.65;;;;;;;-0.69;100.00;93434.25;5025544;28;20410;-62
2023/03/12 01:56:16;;;;;;;9.88;5.07;;;;;;;-0.51;100.00;93429.97;5028913;28;20047;-62
2023/03/12 01:58:50;;;;;;;9.07;4.40;;;;;;;-0.43;100.00;93426.28;5026811;28;20056;-62
2023/03/12 02:01:18;;;;;;;8.85;4.65;;;;;;;-0.30;100.00;93434.19;5029103;28;20261;-62
2023/03/12 02:03:47;;;;;;;12.70;5.57;;;;;;;-0.20;100.00;93425.53;5028364;28;20068;-62
2023/03/12 02:06:17;;;;;;;23.95;10.60;;;;;;;-0.24;100.00;93430.88;5028583;28;20039;-62
2023/03/12 02:08:46;;;;;;;13.13;6.10;;;;;;;-0.12;100.00;93412.94;5028261;28;20044;-65
2023/03/12 02:11:13;;;;;;;9.27;4.80;;;;;;;-0.24;100.00;93413.91;5027523;28;20338;-62
2023/03/12 02:13:40;;;;;;;8.13;4.18;;;;;;;-0.28;100.00;93410.34;5028430;28;20394;-62
2023/03/12 02:16:08;;;;;;;9.48;4.50;;;;;;;-0.19;100.00;93418.22;5026348;28;20255;-62
2023/03/12 02:18:35;;;;;;;7.60;4.07;;;;;;;-0.06;100.00;93420.38;5028689;28;20050;-62
2023/03/12 02:21:01;;;;;;;10.02;4.72;;;;;;;0.08;100.00;93422.53;5028022;28;20446;-62
2023/03/12 02:23:40;;;;;;;8.33;4.33;;;;;;;0.13;100.00;93422.22;5028512;28;20049;-62
2023/03/12 02:26:09;;;;;;;9.38;4.07;;;;;;;0.08;100.00;93430.63;5027817;28;20486;-62
2023/03/12 02:28:42;;;;;;;8.65;4.22;;;;;;;0.13;100.00;93429.53;5028416;28;20046;-62
2023/03/12 02:31:16;;;;;;;8.20;4.50;;;;;;;0.21;100.00;93433.13;5027153;28;20366;-62
2023/03/12 02:33:43;;;;;;;8.82;5.00;;;;;;;0.17;100.00;93427.69;5028239;28;20048;-62
2023/03/12 02:36:11;;;;;;;11.40;5.03;;;;;;;-0.08;100.00;93435.34;5028777;28;20053;-62
2023/03/12 02:38:46;;;;;;;9.68;5.10;;;;;;;-0.01;100.00;93436.25;5028488;28;20048;-62
2023/03/12 02:41:30;;;;;;;8.88;4.40;;;;;;;0.14;100.00;93437.28;5027597;28;20827;-62
2023/03/12 02:44:23;;;;;;;9.35;5.05;;;;;;;0.27;100.00;93437.88;5028257;28;20079;-62
2023/03/12 02:46:55;;;;;;;11.05;5.22;;;;;;;0.36;100.00;93433.00;5029516;28;20441;-62
2023/03/12 02:49:24;;;;;;;11.13;4.90;;;;;;;0.37;100.00;93436.47;5018844;28;20425;-62
2023/03/12 02:51:51;;;;;;;10.57;5.40;;;;;;;0.43;100.00;93440.41;5012288;28;20046;-62
2023/03/12 02:54:20;;;;;;;10.05;5.55;;;;;;;0.38;100.00;93436.13;5032157;28;20095;-63
2023/03/12 02:56:48;;;;;;;10.63;5.60;;;;;;;0.37;100.00;93431.06;5030310;28;20509;-62
2023/03/12 02:59:15;;;;;;;10.38;5.63;;;;;;;0.24;100.00;93432.41;5031881;28;20059;-63
2023/03/12 03:01:42;;;;;;;10.27;5.30;;;;;;;0.27;100.00;93429.75;5031816;28;20041;-62
2023/03/12 03:04:11;;;;;;;11.30;5.55;;;;;;;0.38;100.00;93438.81;5032221;28;20413;-62
2023/03/12 03:06:42;;;;;;;10.43;5.85;;;;;;;0.43;100.00;93439.66;5032082;28;20052;-62
2023/03/12 03:09:09;;;;;;;12.20;5.38;;;;;;;0.46;100.00;93444.31;5031123;28;20045;-62
2023/03/12 03:11:36;;;;;;;10.50;6.03;;;;;;;0.42;100.00;93443.47;5032023;28;20057;-62
2023/03/12 03:14:03;;;;;;;12.40;5.53;;;;;;;0.38;100.00;93443.41;5030252;28;20041;-62
2023/03/12 03:16:30;;;;;;;9.23;5.35;;;;;;;0.13;100.00;93434.94;5032119;28;20050;-62
2023/03/12 03:18:56;;;;;;;10.65;5.55;;;;;;;-0.22;100.00;93438.59;5031249;28;20037;-62
2023/03/12 03:21:23;;;;;;;9.25;5.13;;;;;;;-0.32;100.00;93431.09;5040559;28;20045;-62
2023/03/12 03:23:51;;;;;;;11.63;6.00;;;;;;;-0.19;100.00;93429.00;5034394;28;20052;-62
2023/03/12 03:26:21;;;;;;;10.57;5.23;;;;;;;-0.04;100.00;93425.41;5031850;28;20045;-62
2023/03/12 03:28:48;;;;;;;10.55;5.53;;;;;;;-0.02;100.00;93415.81;5029812;28;20053;-62
2023/03/12 03:31:15;;;;;;;10.57;5.55;;;;;;;0.05;100.00;93419.78;5031507;28;20071;-62
2023/03/12 03:33:42;;;;;;;11.57;5.60;;;;;;;0.19;100.00;93412.69;5042488;28;20059;-61
2023/03/12 03:36:12;;;;;;;10.93;6.00;;;;;;;0.20;100.00;93410.75;5033582;28;20041;-62
2023/03/12 03:38:40;;;;;;;10.57;5.80;;;;;;;0.10;100.00;93400.56;5030956;28;20530;-62
2023/03/12 03:41:07;;;;;;;11.63;5.85;;;;;;;0.19;100.00;93391.09;5030275;28;21473;-62
2023/03/12 03:43:34;;;;;;;11.02;5.95;;;;;;;0.30;100.00;93385.06;5030250;28;20057;-62
2023/03/12 03:46:03;;;;;;;12.05;6.28;;;;;;;0.28;100.00;93388.16;5030586;28;20048;-62
2023/03/12 03:48:30;;;;;;;16.10;8.00;;;;;;;0.15;100.00;93374.06;5024853;28;20035;-62
2023/03/12 03:51:01;;;;;;;18.20;9.20;;;;;;;0.03;100.00;93351.91;5009594;28;20323;-62
2023/03/12 03:53:28;;;;;;;17.98;9.27;;;;;;;0.00;100.00;93348.03;5029833;28;20045;-62
2023/03/12 03:55:55;;;;;;;22.90;11.07;;;;;;;0.02;100.00;93371.94;5029398;28;20450;-62
2023/03/12 03:58:22;;;;;;;22.10;10.82;;;;;;;0.02;100.00;93401.59;5030068;28;20424;-62
2023/03/12 04:00:49;;;;;;;24.23;11.40;;;;;;;0.09;100.00;93396.34;5038345;28;20039;-62
2023/03/12 04:03:16;;;;;;;22.33;11.73;;;;;;;0.28;100.00;93407.03;5050636;28;20051;-62
2023/03/12 04:05:44;;;;;;;26.02;11.77;;;;;;;0.34;100.00;93416.41;5043365;28;20042;-61
2023/03/12 04:08:12;;;;;;;24.02;11.63;;;;;;;0.47;100.00;93413.47;5030582;28;20102;-62
2023/03/12 04:10:39;;;;;;;24.40;12.40;;;;;;;0.43;100.00;93418.06;5030401;28;20041;-62
2023/03/12 04:13:06;;;;;;;23.48;11.52;;;;;;;0.50;100.00;93412.75;5029988;28;20052;-62
2023/03/12 04:15:33;;;;;;;24.00;11.80;;;;;;;0.50;100.00;93423.53;5029952;28;20410;-63
2023/03/12 04:17:59;;;;;;;22.92;11.90;;;;;;;0.63;100.00;93416.78;5029884;28;20052;-62
2023/03/12 04:20:26;;;;;;;25.17;12.43;;;;;;;0.57;100.00;93429.06;5029997;28;20103;-62
2023/03/12 04:22:53;;;;;;;26.00;12.15;;;;;;;0.58;100.00;93436.00;5029949;28;20040;-62
2023/03/12 04:25:19;;;;;;;27.35;12.82;;;;;;;0.67;100.00;93436.53;5029022;28;20107;-62
2023/03/12 04:27:46;;;;;;;25.33;11.87;;;;;;;0.83;100.00;93422.09;5029723;28;20041;-62
2023/03/12 04:30:13;;;;;;;24.40;11.95;;;;;;;0.85;100.00;93423.28;5028603;28;20050;-62
2023/03/12 04:32:39;;;;;;;26.50;12.90;;;;;;;0.77;100.00;93422.38;5029807;28;20384;-63
2023/03/12 04:35:06;;;;;;;28.52;12.60;;;;;;;0.79;100.00;93422.81;5028429;28;20041;-63
2023/03/12 04:37:33;;;;;;;26.65;12.75;;;;;;;0.84;100.00;93427.09;5008599;28;20042;-62
2023/03/12 04:40:04;;;;;;;28.27;13.10;;;;;;;0.81;100.00;93427.06;5022589;28;20052;-63
2023/03/12 04:42:33;;;;;;;29.83;13.05;;;;;;;0.86;100.00;93427.50;5029933;28;20042;-63
2023/03/12 04:45:00;;;;;;;26.75;13.52;;;;;;;0.89;100.00;93423.31;5029451;28;20510;-63
2023/03/12 04:47:26;;;;;;;28.27;13.25;;;;;;;0.85;100.00;93417.88;5029602;28;20482;-63
2023/03/12 04:49:53;;;;;;;27.73;13.15;;;;;;;0.87;100.00;93420.97;5029120;28;20118;-63
2023/03/12 04:52:20;;;;;;;29.53;13.17;;;;;;;0.76;100.00;93415.41;5029752;28;20536;-63
2023/03/12 04:54:46;;;;;;;30.75;14.23;;;;;;;0.75;100.00;93418.50;5029058;28;20120;-63
2023/03/12 04:57:13;;;;;;;31.33;14.30;;;;;;;0.87;100.00;93420.22;5029600;28;20038;-63
2023/03/12 04:59:40;;;;;;;34.13;14.43;;;;;;;0.91;100.00;93421.03;5011547;28;20099;-63
2023/03/12 05:02:07;;;;;;;32.33;14.38;;;;;;;0.82;100.00;93436.72;5028221;28;20047;-63
2023/03/12 05:04:33;;;;;;;32.13;14.10;;;;;;;0.95;100.00;93424.56;5029218;28;20053;-63
2023/03/12 05:07:00;;;;;;;32.40;14.65;;;;;;;0.92;100.00;93426.06;5042246;28;20050;-63
2023/03/12 05:09:27;;;;;;;29.40;13.30;;;;;;;0.89;100.00;93428.72;5028682;28;20045;-63
2023/03/12 05:11:53;;;;;;;30.95;13.63;;;;;;;1.02;100.00;93431.97;5028969;28;20083;-63
2023/03/12 05:14:20;;;;;;;31.75;13.88;;;;;;;0.93;100.00;93424.16;5029269;28;20414;-63
2023/03/12 05:16:47;;;;;;;32.37;14.30;;;;;;;0.84;100.00;93434.44;5028403;28;20158;-63
2023/03/12 05:19:13;;;;;;;33.08;14.48;;;;;;;0.74;100.00;93439.31;5018956;28;20307;-63
2023/03/12 05:21:41;;;;;;;34.50;14.90;;;;;;;0.72;100.00;93430.03;5011482;28;20053;-63
2023/03/12 05:24:09;;;;;;;32.70;14.05;;;;;;;0.71;100.00;93425.78;5028683;28;20829;-63
2023/03/12 05:26:37;;;;;;;33.85;14.93;;;;;;;0.79;100.00;93422.03;5028213;28;20541;-63
2023/03/12 05:29:04;;;;;;;33.30;14.87;;;;;;;0.77;100.00;93425.09;5029089;28;20053;-63
2023/03/12 05:31:33;;;;;;;32.03;13.65;;;;;;;0.78;100.00;93423.16;5027703;28;20057;-64
2023/03/12 05:34:02;;;;;;;30.25;13.23;;;;;;;0.78;100.00;93413.13;5029132;28;20037;-63
2023/03/12 05:36:29;;;;;;;34.20;14.43;;;;;;;0.76;100.00;93415.41;5029311;28;20056;-63
2023/03/12 05:38:56;;;;;;;35.15;15.20;;;;;;;0.85;100.00;93425.97;5028771;28;20410;-63
2023/03/12 05:41:25;;;;;;;33.50;14.97;;;;;;;0.91;100.00;93432.59;5028021;28;20045;-63
2023/03/12 05:43:53;;;;;;;31.63;13.55;;;;;;;0.96;100.00;93426.09;5028570;28;20052;-63
2023/03/12 05:46:19;;;;;;;29.50;12.63;;;;;;;0.99;100.00;93422.69;5028983;28;20495;-63
2023/03/12 05:48:46;;;;;;;31.60;13.55;;;;;;;0.87;100.00;93420.97;5027169;28;20049;-63
2023/03/12 05:51:13;;;;;;;28.92;13.05;;;;;;;0.95;100.00;93428.03;5028133;28;20099;-63
2023/03/12 05:53:40;;;;;;;33.70;14.90;;;;;;;1.01;100.00;93431.19;5029149;28;20045;-63
2023/03/12 05:56:11;;;;;;;56.58;24.23;;;;;;;1.20;100.00;93428.31;5027781;28;20251;-63
2023/03/12 05:58:38;;;;;;;35.47;16.63;;;;;;;1.20;100.00;93428.31;5028804;28;20045;-63
2023/03/12 06:01:13;;;;;;;27.88;11.38;;;;;;;1.06;100.00;93425.47;5041769;28;20041;-63
2023/03/12 06:03:41;;;;;;;24.90;10.93;;;;;;;0.95;100.00;93438.84;5028970;28;20046;-63
2023/03/12 06:06:09;;;;;;;29.07;12.27;;;;;;;0.83;100.00;93444.47;5027735;28;20807;-63
2023/03/12 06:08:35;;;;;;;27.17;11.75;;;;;;;0.86;100.00;93451.06;5028906;28;20041;-65
2023/03/12 06:11:03;;;;;;;28.67;11.35;;;;;;;0.71;100.00;93453.56;5028351;28;20053;-63
2023/03/12 06:13:29;;;;;;;26.10;11.70;;;;;;;0.76;100.00;93447.81;5028965;28;20045;-63
2023/03/12 06:16:05;;;;;;;29.35;12.10;;;;;;;0.58;100.00;93446.78;5041287;28;20446;-63
2023/03/12 06:18:33;;;;;;;30.67;12.27;;;;;;;0.63;100.00;93449.19;5028596;28;20108;-63
2023/03/12 06:21:10;;;;;;;26.83;11.52;;;;;;;0.64;100.00;93450.75;5015004;28;20064;-63
2023/03/12 06:23:37;;;;;;;29.50;11.40;;;;;;;0.67;100.00;93455.44;5028535;28;20167;-65
2023/03/12 06:26:05;;;;;;;25.90;11.52;;;;;;;0.78;100.00;93450.94;5028075;28;20401;-63
2023/03/12 06:28:32;;;;;;;27.20;11.25;;;;;;;0.88;100.00;93446.84;5028529;28;20038;-63
2023/03/12 06:30:59;;;;;;;27.53;10.93;;;;;;;0.96;100.00;93445.00;5028040;28;20172;-63
2023/03/12 06:33:26;;;;;;;24.65;10.68;;;;;;;0.97;100.00;93452.75;5028515;28;20049;-63
2023/03/12 06:35:56;;;;;;;25.23;10.93;;;;;;;1.06;100.00;93449.78;5026585;28;20060;-63
2023/03/12 06:38:23;;;;;;;28.20;11.60;;;;;;;1.10;100.00;93452.53;5028371;28;20490;-63
2023/03/12 06:40:59;;;;;;;29.63;13.35;;;;;;;1.31;100.00;93455.50;5027698;28;20098;-63
2023/03/12 06:43:28;;;;;;;28.33;12.80;;;;;;;1.42;100.00;93455.63;5027040;28;20050;-63
2023/03/12 06:45:57;;;;;;;28.45;12.45;;;;;;;1.36;100.00;93460.56;5026738;28;20052;-63
2023/03/12 06:48:25;;;;;;;27.00;12.15;;;;;;;1.55;100.00;93456.94;5027931;28;20391;-63
2023/03/12 06:50:52;;;;;;;26.85;11.95;;;;;;;1.68;100.00;93451.28;5027747;28;20049;-63
2023/03/12 06:53:19;;;;;;;27.83;11.93;;;;;;;1.77;100.00;93449.84;5026824;28;20045;-63
2023/03/12 06:55:49;;;;;;;22.90;11.07;;;;;;;1.68;100.00;93448.56;5027973;28;20051;-63
2023/03/12 06:58:16;;;;;;;27.80;13.90;;;;;;;1.92;100.00;93445.34;5028170;28;20034;-63
2023/03/12 07:00:43;;;;;;;57.35;22.73;;;;;;;1.99;100.00;93452.75;5022911;28;20049;-63
2023/03/12 07:03:10;;;;;;;43.45;18.45;;;;;;;2.04;100.00;93447.00;5024653;28;20050;-63
2023/03/12 07:05:36;;;;;;;26.75;13.02;;;;;;;2.74;100.00;93456.06;5023462;28;20053;-63
2023/03/12 07:08:03;;;;;;;24.03;11.90;;;;;;;3.22;100.00;93448.97;5027849;28;20048;-63
2023/03/12 07:10:30;;;;;;;21.45;11.10;;;;;;;3.15;100.00;93447.78;5026645;28;20049;-63
2023/03/12 07:12:57;;;;;;;26.27;13.73;;;;;;;3.36;100.00;93457.19;5027575;28;20049;-63
2023/03/12 07:15:24;;;;;;;21.60;11.10;;;;;;;3.49;100.00;93458.41;5027980;28;20388;-63
2023/03/12 07:17:50;;;;;;;17.80;9.45;;;;;;;3.20;100.00;93468.34;5028819;28;20052;-64
2023/03/12 07:20:17;;;;;;;18.43;8.70;;;;;;;3.18;100.00;93467.97;5027551;28;20365;-63
2023/03/12 07:22:44;;;;;;;17.25;9.30;;;;;;;2.76;100.00;93461.91;5027759;28;20044;-63
2023/03/12 07:25:11;;;;;;;15.57;8.18;;;;;;;2.78;100.00;93467.72;5028281;28;20038;-64
2023/03/12 07:27:38;;;;;;;18.42;9.15;;;;;;;2.95;100.00;93468.97;5027990;28;20079;-63
2023/03/12 07:30:05;;;;;;;17.20;9.30;;;;;;;3.09;100.00;93464.81;5025900;28;20102;-63
2023/03/12 07:32:32;;;;;;;18.33;9.50;;;;;;;3.46;100.00;93461.91;5030530;28;20049;-63
2023/03/12 07:34:59;;;;;;;17.88;9.40;;;;;;;4.12;100.00;93458.19;5031222;28;20045;-64
2023/03/12 07:37:26;;;;;;;17.42;9.55;;;;;;;4.65;100.00;93452.03;5031705;28;20041;-64
2023/03/12 07:39:53;;;;;;;17.27;9.35;;;;;;;8.67;100.00;93443.47;5031051;28;20060;-64
2023/03/12 07:42:20;;;;;;;14.73;9.00;;;;;;;10.72;98.21;93448.50;5031432;28;20061;-61
2023/03/12 07:44:47;;;;;;;13.53;8.97;;;;;;;13.42;81.57;93436.19;5030881;28;20038;-62
2023/03/12 07:47:14;;;;;;;12.35;8.00;;;;;;;11.05;80.31;93440.28;5030135;28;20372;-62
2023/03/12 07:49:50;;;;;;;11.93;8.07;;;;;;;8.82;94.24;93448.69;5030833;28;20038;-62
2023/03/12 07:52:18;;;;;;;11.23;7.63;;;;;;;7.37;100.00;93457.97;5031483;28;20052;-62
2023/03/12 07:54:45;;;;;;;11.50;7.35;;;;;;;7.43;100.00;93454.81;5017524;28;20091;-61
2023/03/12 07:57:12;;;;;;;10.77;7.03;;;;;;;7.14;100.00;93455.88;5031298;28;20318;-62
2023/03/12 07:59:39;;;;;;;13.60;8.25;;;;;;;6.56;100.00;93458.31;5031049;28;20049;-62
2023/03/12 08:02:05;;;;;;;15.43;9.07;;;;;;;6.51;100.00;93466.91;5015193;28;20065;-62
2023/03/12 08:04:32;;;;;;;15.27;8.90;;;;;;;6.00;100.00;93471.91;5017618;28;20116;-62
2023/03/12 08:07:01;;;;;;;14.18;8.73;;;;;;;6.03;100.00;93464.09;5030488;28;20045;-62
2023/03/12 08:09:28;;;;;;;13.00;8.07;;;;;;;6.00;100.00;93471.91;5031022;28;20529;-62
2023/03/12 08:11:55;;;;;;;13.07;7.28;;;;;;;5.98;100.00;93473.47;5030681;28;20300;-62
2023/03/12 08:14:21;;;;;;;20.25;11.25;;;;;;;6.07;100.00;93471.06;5029502;28;20057;-62
2023/03/12 08:16:48;;;;;;;15.82;9.52;;;;;;;6.25;100.00;93481.88;5030279;28;20095;-62
2023/03/12 08:19:15;;;;;;;19.48;10.98;;;;;;;6.53;100.00;93480.16;5030535;28;20041;-63
2023/03/12 08:21:42;;;;;;;13.17;7.97;;;;;;;6.93;100.00;93480.63;5030372;28;20403;-62
2023/03/12 08:24:09;;;;;;;11.88;6.80;;;;;;;7.33;100.00;93483.78;5030504;28;20055;-62
2023/03/12 08:26:36;;;;;;;12.52;7.20;;;;;;;7.35;100.00;93479.44;5029383;28;20444;-62
2023/03/12 08:29:03;;;;;;;12.68;7.20;;;;;;;7.39;100.00;93485.66;5029846;28;20253;-62
2023/03/12 08:31:29;;;;;;;24.48;11.75;;;;;;;6.04;100.00;93485.50;5030515;28;20045;-62
2023/03/12 08:33:56;;;;;;;18.03;10.13;;;;;;;5.80;100.00;93496.06;5030058;28;20091;-62
2023/03/12 08:36:23;;;;;;;14.35;8.02;;;;;;;5.80;100.00;93496.06;5030419;28;20041;-62
2023/03/12 08:38:49;;;;;;;15.38;8.70;;;;;;;5.84;100.00;93496.06;5029685;28;20044;-62
2023/03/12 08:41:16;;;;;;;20.02;9.65;;;;;;;6.12;100.00;93506.09;5029980;28;20049;-62
2023/03/12 08:43:43;;;;;;;20.65;9.15;;;;;;;5.93;100.00;93509.25;5029498;28;20102;-62
2023/03/12 08:46:10;;;;;;;15.53;7.60;;;;;;;5.57;100.00;93504.72;5029085;28;20063;-62
2023/03/12 08:48:39;;;;;;;9.90;5.78;;;;;;;5.66;100.00;93506.25;5028929;28;20049;-62
2023/03/12 08:51:06;;;;;;;10.95;5.90;;;;;;;6.15;100.00;93507.25;5029459;28;20052;-62
2023/03/12 08:53:35;;;;;;;9.95;5.88;;;;;;;6.40;100.00;93507.88;5029062;28;20344;-62
2023/03/12 08:56:02;;;;;;;10.25;5.57;;;;;;;6.59;100.00;93500.34;5030856;28;20435;-62
2023/03/12 08:58:29;;;;;;;8.10;4.80;;;;;;;7.49;100.00;93485.94;5041573;28;20044;-63
2023/03/12 09:00:56;;;;;;;7.72;4.93;;;;;;;7.02;100.00;93491.06;5017872;28;20045;-63
2023/03/12 09:03:24;;;;;;;7.32;4.15;;;;;;;7.04;100.00;93486.75;5014871;28;20041;-63
2023/03/12 09:06:01;;;;;;;7.13;3.95;;;;;;;8.34;100.00;93499.75;5029248;28;20518;-63
2023/03/12 09:08:28;;;;;;;6.72;4.20;;;;;;;8.82;100.00;93503.41;5029472;28;20464;-63
2023/03/12 09:10:54;;;;;;;7.00;4.33;;;;;;;8.61;100.00;93499.78;5034303;28;20053;-63
2023/03/12 09:13:21;;;;;;;6.07;3.65;;;;;;;7.85;100.00;93508.19;5012090;28;20046;-62
2023/03/12 09:15:48;;;;;;;6.03;3.60;;;;;;;7.78;100.00;93502.78;5029058;28;20057;-63
2023/03/12 09:18:15;;;;;;;6.28;3.55;;;;;;;8.72;100.00;93503.16;5029341;28;20456;-63
2023/03/12 09:20:42;;;;;;;5.75;3.53;;;;;;;10.20;100.00;93504.06;5028145;28;20380;-63
2023/03/12 09:23:09;;;;;;;5.03;2.50;;;;;;;10.79;100.00;93507.97;5028094;28;21724;-64
2023/03/12 09:25:35;;;;;;;8.52;4.50;;;;;;;13.66;89.57;93496.44;5029580;28;20055;-64
2023/03/12 09:28:02;;;;;;;8.35;4.40;;;;;;;14.44;72.42;93497.66;5028432;28;20103;-62
2023/03/12 09:30:30;;;;;;;10.32;5.55;;;;;;;14.90;71.04;93495.94;5028881;28;20467;-63
2023/03/12 09:32:57;;;;;;;4.00;2.13;;;;;;;13.74;72.74;93503.25;5028477;28;20041;-62
2023/03/12 09:35:24;;;;;;;3.93;2.10;;;;;;;13.09;75.27;93510.84;5029174;28;20045;-62
2023/03/12 09:37:51;;;;;;;4.93;2.72;;;;;;;14.84;66.67;93514.31;5027914;28;20046;-63
2023/03/12 09:40:22;;;;;;;3.88;1.90;;;;;;;16.15;61.83;93517.75;5029051;28;20104;-64
2023/03/12 09:42:54;;;;;;;4.70;2.00;;;;;;;15.52;60.30;93522.72;5027225;28;20091;-63
2023/03/12 09:45:26;;;;;;;4.18;1.55;;;;;;;15.23;62.29;93516.78;5028649;28;20525;-63
2023/03/12 09:47:57;;;;;;;3.63;1.30;;;;;;;13.06;67.51;93525.50;5029028;28;20049;-63
2023/03/12 09:50:28;;;;;;;5.30;1.90;;;;;;;12.92;73.26;93534.22;5028917;28;20401;-62
2023/03/12 09:53:03;;;;;;;7.03;1.88;;;;;;;12.52;74.79;93527.09;5017558;28;20560;-63
2023/03/12 09:55:37;;;;;;;4.15;2.30;;;;;;;12.94;75.81;93529.78;5018394;28;20406;-63
2023/03/12 09:58:12;;;;;;;3.20;1.73;;;;;;;13.03;72.35;93522.84;5023455;28;20457;-63
2023/03/12 10:00:39;;;;;;;6.53;2.90;;;;;;;12.61;76.18;93531.94;5020281;28;20049;-61
2023/03/12 10:03:11;;;;;;;4.25;1.70;;;;;;;11.87;81.51;93528.09;5019672;28;19944;-63
2023/03/12 10:06:10;;;;;;;3.65;1.60;;;;;;;11.14;87.85;93535.78;5018199;28;20110;-62
2023/03/12 10:08:55;;;;;;;5.97;2.13;;;;;;;12.07;84.05;93535.44;5018832;28;20986;-63
2023/03/12 10:11:54;;;;;;;4.85;1.73;;;;;;;11.13;86.68;93551.50;5023703;28;20172;-62
2023/03/12 10:14:29;;;;;;;7.07;3.10;;;;;;;11.32;89.47;93543.59;5022613;28;20158;-63
2023/03/12 10:17:11;;;;;;;5.25;2.40;;;;;;;10.54;91.88;93549.66;5025236;28;20040;-62
2023/03/12 10:19:52;;;;;;;3.78;1.70;;;;;;;10.51;91.91;93553.25;5023793;28;20052;-60
2023/03/12 10:22:38;;;;;;;4.00;1.30;;;;;;;10.32;91.63;93555.59;5024487;28;20834;-65
2023/03/12 10:25:29;;;;;;;3.92;1.40;;;;;;;9.80;94.78;93556.94;5024044;28;20053;-60
2023/03/12 10:28:11;;;;;;;5.07;1.80;;;;;;;9.64;100.00;93564.25;5022044;28;20042;-62
2023/03/12 10:30:44;;;;;;;4.40;1.50;;;;;;;9.93;99.20;93561.81;5024713;28;20053;-60
2023/03/12 10:33:14;;;;;;;3.72;1.80;;;;;;;9.79;99.99;93560.84;5019788;28;21777;-63
2023/03/12 10:35:41;;;;;;;4.20;1.90;;;;;;;9.63;100.00;93562.72;5017545;28;20056;-67
2023/03/12 10:38:21;;;;;;;3.70;1.80;;;;;;;9.57;100.00;93554.22;5018343;28;21287;-63
2023/03/12 10:40:48;;;;;;;3.97;1.63;;;;;;;9.45;100.00;93563.78;5023197;28;20104;-61
2023/03/12 10:43:14;;;;;;;3.03;1.50;;;;;;;9.20;100.00;93575.16;5021885;28;20168;-63
2023/03/12 10:45:51;;;;;;;3.25;1.38;;;;;;;9.33;100.00;93567.91;5023713;28;20551;-61
2023/03/12 10:48:20;;;;;;;2.97;1.30;;;;;;;9.42;100.00;93575.59;5016927;28;21542;-59
2023/03/12 10:51:08;;;;;;;3.33;1.25;;;;;;;9.42;100.00;93578.34;5018232;28;20053;-63
2023/03/12 10:53:41;;;;;;;3.53;1.80;;;;;;;9.50;100.00;93596.19;5038660;28;20050;-61
2023/03/12 10:56:13;;;;;;;3.22;1.52;;;;;;;9.78;100.00;93588.69;5022233;28;21308;-62
2023/03/12 10:58:49;;;;;;;4.20;1.90;;;;;;;8.83;100.00;93601.50;5025344;28;20056;-60
2023/03/12 11:01:25;;;;;;;3.70;1.58;;;;;;;9.27;100.00;93599.69;5022849;28;20302;-60
2023/03/12 11:04:06;;;;;;;3.85;1.92;;;;;;;9.09;100.00;93602.69;5017123;28;20040;-61
2023/03/12 11:06:33;;;;;;;4.63;1.30;;;;;;;9.01;100.00;93601.25;5017307;28;20042;-61
2023/03/12 11:09:08;;;;;;;5.95;2.20;;;;;;;9.58;100.00;93596.88;5021519;28;20808;-61
2023/03/12 11:11:46;;;;;;;4.00;2.17;;;;;;;10.15;100.00;93600.56;5024922;28;20038;-59
2023/03/12 11:14:17;;;;;;;4.10;1.52;;;;;;;10.65;100.00;93599.59;5022213;28;20132;-65
2023/03/12 11:16:44;;;;;;;4.10;1.85;;;;;;;10.62;100.00;93600.44;5023911;28;20038;-64
2023/03/12 11:19:13;;;;;;;7.33;2.30;;;;;;;11.05;100.00;93598.78;5025430;28;20465;-61
2023/03/12 11:21:57;;;;;;;6.45;2.80;;;;;;;14.67;77.01;93596.63;5022873;28;20552;-61
2023/03/12 11:24:24;;;;;;;8.27;3.92;;;;;;;16.11;66.74;93600.16;5022196;28;20118;-62
2023/03/12 11:27:01;;;;;;;4.13;1.80;;;;;;;14.41;73.46;93600.69;5020026;28;20037;-60
2023/03/12 11:29:31;;;;;;;3.63;1.40;;;;;;;14.03;71.14;93599.59;5023963;28;20049;-64
2023/03/12 11:32:18;;;;;;;4.33;1.50;;;;;;;11.97;85.72;93608.75;5025176;28;20125;-59
2023/03/12 11:34:48;;;;;;;3.15;1.23;;;;;;;11.44;85.92;93599.84;5023083;28;20049;-60